Kota Budaya — 9V2280 — position and weather

sailwx.info

Track history (hours):
 
Tides and Currents Weather Stations Pressure Air Temp Water Temp Dewpoint Dewpoint Depression Visibility Wind Speed Wind Dir Waves Ship Positions

Kota Budaya

Last reported at 2018-Jan-08 23:30 UTC. Time now 2018-Jan-18 02:22 UTC.
Position N 01°15' E 104°10'.
Warning: this ship's position is 9 days out of date.

Length 180 m; draft 10.4 m.

Type: Cargo ship. MMSI: 564709000.

Date/timePositionNaut miles runAvg speedWind from/ knotsBaromVisibWave heightAir tempDewpointWater temp
2018-Jan-08 23:30N 01°15' E 104°10'710.1
2018-Jan-08 22:49N 01°15' E 104°03'410.2
2018-Jan-08 22:26N 01°14' E 103°59'4 8.0
2018-Jan-08 21:58N 01°15' E 103°55'2 3.8
2018-Jan-08 21:26N 01°15' E 103°53'0 0.1
2018-Jan-08 20:56N 01°15' E 103°53'0 0.0
2018-Jan-08 16:50N 01°15' E 103°53'0 0.1
2018-Jan-08 16:29N 01°15' E 103°53'0 0.3
2018-Jan-08 15:56N 01°15' E 103°53'0 0.1
2018-Jan-08 14:56N 01°15' E 103°53'1 2.8
2018-Jan-08 14:31N 01°14' E 103°53'4 7.2
2018-Jan-08 13:59N 01°12' E 103°50'1 1.1
2018-Jan-08 13:14N 01°13' E 103°50'0 0.0
2018-Jan-08 12:56N 01°13' E 103°50'0 0.1
2018-Jan-08 12:29N 01°13' E 103°50'0 0.1
2018-Jan-08 11:59N 01°13' E 103°50'0 0.2
2018-Jan-08 11:30N 01°13' E 103°49'4 7.0
2018-Jan-08 10:59N 01°15' E 103°46'511.2
2018-Jan-08 10:30N 01°13' E 103°41'5 9.3
2018-Jan-08 09:59N 01°13' E 103°36'2 5.2
2018-Jan-08 09:30N 01°11' E 103°34'3 6.5
2018-Jan-08 08:58N 01°10' E 103°31'1 3.1
2018-Jan-08 08:30N 01°09' E 103°30'4 6.9
2018-Jan-08 07:59N 01°10' E 103°26'6 9.9
2018-Jan-08 07:21N 01°14' E 103°21'  
Track history (hours):
 
Tides and Currents Weather Stations Pressure Air Temp Water Temp Dewpoint Dewpoint Depression Visibility Wind Speed Wind Dir Waves Ship Positions

Kota Budaya

Last reported at 2018-Jan-08 23:30 UTC. Time now 2018-Jan-18 02:22 UTC.
Position N 01°15' E 104°10'.
Warning: this ship's position is 9 days out of date.

Length 180 m; draft 10.4 m.

Type: Cargo ship. MMSI: 564709000.

Date/timePositionNaut miles runAvg speedWind from/ knotsBaromVisibWave heightAir tempDewpointWater temp
2018-Jan-08 23:30N 01°15' E 104°10'710.1
2018-Jan-08 22:49N 01°15' E 104°03'410.2
2018-Jan-08 22:26N 01°14' E 103°59'4 8.0
2018-Jan-08 21:58N 01°15' E 103°55'2 3.8
2018-Jan-08 21:26N 01°15' E 103°53'0 0.1
2018-Jan-08 20:56N 01°15' E 103°53'0 0.0
2018-Jan-08 16:50N 01°15' E 103°53'0 0.1
2018-Jan-08 16:29N 01°15' E 103°53'0 0.3
2018-Jan-08 15:56N 01°15' E 103°53'0 0.1
2018-Jan-08 14:56N 01°15' E 103°53'1 2.8
2018-Jan-08 14:31N 01°14' E 103°53'4 7.2
2018-Jan-08 13:59N 01°12' E 103°50'1 1.1
2018-Jan-08 13:14N 01°13' E 103°50'0 0.0
2018-Jan-08 12:56N 01°13' E 103°50'0 0.1
2018-Jan-08 12:29N 01°13' E 103°50'0 0.1
2018-Jan-08 11:59N 01°13' E 103°50'0 0.2
2018-Jan-08 11:30N 01°13' E 103°49'4 7.0
2018-Jan-08 10:59N 01°15' E 103°46'511.2
2018-Jan-08 10:30N 01°13' E 103°41'5 9.3
2018-Jan-08 09:59N 01°13' E 103°36'2 5.2
2018-Jan-08 09:30N 01°11' E 103°34'3 6.5
2018-Jan-08 08:58N 01°10' E 103°31'1 3.1
2018-Jan-08 08:30N 01°09' E 103°30'4 6.9
2018-Jan-08 07:59N 01°10' E 103°26'6 9.9
2018-Jan-08 07:21N 01°14' E 103°21'  

Dump ship's entire track history